sensor_id;sensor_type;location;lat;lon;timestamp;pressure;altitude;pressure_sealevel;temperature;humidity
2711;BME280;20721;47.402;8.550;2024-02-14T00:00:24;96612;;;8.30;54.08
2711;BME280;20721;47.402;8.550;2024-02-14T00:02:25;96613;;;8.35;54.01
2711;BME280;20721;47.402;8.550;2024-02-14T00:04:24;96610;;;8.40;54.12
2711;BME280;20721;47.402;8.550;2024-02-14T00:06:24;96613;;;8.43;54.30
2711;BME280;20721;47.402;8.550;2024-02-14T00:08:24;96613;;;8.48;54.27
2711;BME280;20721;47.402;8.550;2024-02-14T00:11:24;96619;;;8.48;54.26
2711;BME280;20721;47.402;8.550;2024-02-14T00:13:24;96623;;;8.53;54.20
2711;BME280;20721;47.402;8.550;2024-02-14T00:15:25;96625;;;8.51;54.09
2711;BME280;20721;47.402;8.550;2024-02-14T00:17:25;96629;;;8.48;53.90
2711;BME280;20721;47.402;8.550;2024-02-14T00:19:24;96636;;;8.38;54.22
2711;BME280;20721;47.402;8.550;2024-02-14T00:23:24;96640;;;8.40;54.17
2711;BME280;20721;47.402;8.550;2024-02-14T00:25:24;96640;;;8.45;54.30
2711;BME280;20721;47.402;8.550;2024-02-14T00:27:25;96646;;;8.49;54.24
2711;BME280;20721;47.402;8.550;2024-02-14T00:29:24;96642;;;8.53;54.26
2711;BME280;20721;47.402;8.550;2024-02-14T00:33:24;96633;;;8.54;54.14
2711;BME280;20721;47.402;8.550;2024-02-14T00:35:24;96638;;;8.45;54.16
2711;BME280;20721;47.402;8.550;2024-02-14T00:37:24;96636;;;8.47;54.15
2711;BME280;20721;47.402;8.550;2024-02-14T00:39:24;96638;;;8.52;54.14
2711;BME280;20721;47.402;8.550;2024-02-14T00:41:24;96644;;;8.57;54.19
2711;BME280;20721;47.402;8.550;2024-02-14T00:43:24;96641;;;8.61;54.16
2711;BME280;20721;47.402;8.550;2024-02-14T00:45:24;96639;;;8.53;53.95
2711;BME280;20721;47.402;8.550;2024-02-14T00:47:24;96645;;;8.20;54.47
2711;BME280;20721;47.402;8.550;2024-02-14T00:49:24;96642;;;7.99;54.97
2711;BME280;20721;47.402;8.550;2024-02-14T00:51:24;96644;;;8.08;55.09
2711;BME280;20721;47.402;8.550;2024-02-14T00:53:24;96647;;;8.15;55.12
2711;BME280;20721;47.402;8.550;2024-02-14T00:55:24;96647;;;8.27;55.12
2711;BME280;20721;47.402;8.550;2024-02-14T00:57:25;96644;;;8.42;54.85
2711;BME280;20721;47.402;8.550;2024-02-14T00:59:24;96642;;;8.42;54.80
2711;BME280;20721;47.402;8.550;2024-02-14T01:01:24;96647;;;8.45;54.77
2711;BME280;20721;47.402;8.550;2024-02-14T01:03:24;96640;;;8.51;54.61
2711;BME280;20721;47.402;8.550;2024-02-14T01:05:24;96640;;;8.55;54.38
2711;BME280;20721;47.402;8.550;2024-02-14T01:09:24;96644;;;8.57;53.48
2711;BME280;20721;47.402;8.550;2024-02-14T01:11:24;96648;;;8.58;52.37
2711;BME280;20721;47.402;8.550;2024-02-14T01:13:24;96652;;;8.59;52.38
2711;BME280;20721;47.402;8.550;2024-02-14T01:15:24;96656;;;8.54;52.05
2711;BME280;20721;47.402;8.550;2024-02-14T01:17:24;96656;;;8.63;52.11
2711;BME280;20721;47.402;8.550;2024-02-14T01:19:28;96656;;;8.51;51.74
2711;BME280;20721;47.402;8.550;2024-02-14T01:21:24;96655;;;8.30;52.21
2711;BME280;20721;47.402;8.550;2024-02-14T01:23:24;96653;;;8.14;51.92
2711;BME280;20721;47.402;8.550;2024-02-14T01:25:25;96652;;;8.07;51.88
2711;BME280;20721;47.402;8.550;2024-02-14T01:27:24;96652;;;8.13;52.06
2711;BME280;20721;47.402;8.550;2024-02-14T01:29:24;96656;;;8.26;51.53
2711;BME280;20721;47.402;8.550;2024-02-14T01:31:24;96652;;;8.49;51.27
2711;BME280;20721;47.402;8.550;2024-02-14T01:33:24;96655;;;8.71;50.79
2711;BME280;20721;47.402;8.550;2024-02-14T01:35:24;96656;;;8.78;50.62
2711;BME280;20721;47.402;8.550;2024-02-14T01:37:24;96659;;;8.95;50.69
2711;BME280;20721;47.402;8.550;2024-02-14T01:39:24;96658;;;9.10;51.02
2711;BME280;20721;47.402;8.550;2024-02-14T01:41:24;96665;;;9.07;51.46
2711;BME280;20721;47.402;8.550;2024-02-14T01:43:24;96664;;;8.98;51.50
2711;BME280;20721;47.402;8.550;2024-02-14T01:45:24;96663;;;8.82;52.05
2711;BME280;20721;47.402;8.550;2024-02-14T01:47:24;96661;;;8.71;52.38
2711;BME280;20721;47.402;8.550;2024-02-14T01:49:27;96660;;;8.68;52.75
2711;BME280;20721;47.402;8.550;2024-02-14T01:51:24;96659;;;8.68;52.71
2711;BME280;20721;47.402;8.550;2024-02-14T01:53:25;96656;;;8.64;52.66
2711;BME280;20721;47.402;8.550;2024-02-14T01:57:24;96659;;;8.65;53.10
2711;BME280;20721;47.402;8.550;2024-02-14T01:59:24;96656;;;8.67;53.07
2711;BME280;20721;47.402;8.550;2024-02-14T02:01:24;96654;;;8.66;52.71
2711;BME280;20721;47.402;8.550;2024-02-14T02:03:24;96652;;;8.65;52.71
2711;BME280;20721;47.402;8.550;2024-02-14T02:05:24;96650;;;8.65;51.44
2711;BME280;20721;47.402;8.550;2024-02-14T02:07:25;96645;;;8.71;50.04
2711;BME280;20721;47.402;8.550;2024-02-14T02:09:24;96642;;;8.57;50.05
2711;BME280;20721;47.402;8.550;2024-02-14T02:11:25;96644;;;8.66;49.65
2711;BME280;20721;47.402;8.550;2024-02-14T02:13:25;96646;;;8.84;49.26
2711;BME280;20721;47.402;8.550;2024-02-14T02:15:24;96649;;;8.82;49.18
2711;BME280;20721;47.402;8.550;2024-02-14T02:17:24;96648;;;8.77;49.09
2711;BME280;20721;47.402;8.550;2024-02-14T02:19:24;96647;;;8.98;49.16
2711;BME280;20721;47.402;8.550;2024-02-14T02:21:25;96647;;;9.09;49.15
2711;BME280;20721;47.402;8.550;2024-02-14T02:23:25;96645;;;9.16;49.26
2711;BME280;20721;47.402;8.550;2024-02-14T02:25:24;96641;;;9.04;48.87
2711;BME280;20721;47.402;8.550;2024-02-14T02:27:24;96641;;;8.88;49.46
2711;BME280;20721;47.402;8.550;2024-02-14T02:29:24;96634;;;8.72;49.83
2711;BME280;20721;47.402;8.550;2024-02-14T02:31:25;96632;;;8.73;49.68
2711;BME280;20721;47.402;8.550;2024-02-14T02:33:26;96629;;;8.67;49.36
2711;BME280;20721;47.402;8.550;2024-02-14T02:35:25;96627;;;8.70;49.36
2711;BME280;20721;47.402;8.550;2024-02-14T02:37:25;96628;;;8.77;49.34
2711;BME280;20721;47.402;8.550;2024-02-14T02:39:24;96626;;;8.78;48.87
2711;BME280;20721;47.402;8.550;2024-02-14T02:41:24;96628;;;8.72;48.95
2711;BME280;20721;47.402;8.550;2024-02-14T02:45:24;96630;;;8.66;49.10
2711;BME280;20721;47.402;8.550;2024-02-14T02:47:24;96625;;;8.61;49.11
2711;BME280;20721;47.402;8.550;2024-02-14T02:49:24;96623;;;8.47;49.47
2711;BME280;20721;47.402;8.550;2024-02-14T02:51:24;96622;;;8.36;49.56
2711;BME280;20721;47.402;8.550;2024-02-14T02:53:24;96625;;;8.27;49.93
2711;BME280;20721;47.402;8.550;2024-02-14T02:55:26;96621;;;8.15;50.18
2711;BME280;20721;47.402;8.550;2024-02-14T02:57:26;96620;;;7.96;50.17
2711;BME280;20721;47.402;8.550;2024-02-14T02:59:24;96620;;;8.02;50.70
2711;BME280;20721;47.402;8.550;2024-02-14T03:01:24;96624;;;8.10;50.57
2711;BME280;20721;47.402;8.550;2024-02-14T03:03:27;96624;;;8.26;50.44
2711;BME280;20721;47.402;8.550;2024-02-14T03:05:25;96627;;;8.35;49.67
2711;BME280;20721;47.402;8.550;2024-02-14T03:07:24;96628;;;8.26;49.56
2711;BME280;20721;47.402;8.550;2024-02-14T03:09:26;96632;;;8.34;49.98
2711;BME280;20721;47.402;8.550;2024-02-14T03:11:27;96634;;;8.35;49.71
2711;BME280;20721;47.402;8.550;2024-02-14T03:13:25;96632;;;8.42;49.96
2711;BME280;20721;47.402;8.550;2024-02-14T03:15:25;96633;;;8.46;49.87
2711;BME280;20721;47.402;8.550;2024-02-14T03:17:24;96636;;;8.57;49.68
2711;BME280;20721;47.402;8.550;2024-02-14T03:19:25;96643;;;8.54;49.53
2711;BME280;20721;47.402;8.550;2024-02-14T03:21:24;96639;;;8.56;49.26
2711;BME280;20721;47.402;8.550;2024-02-14T03:23:24;96634;;;8.42;49.37
2711;BME280;20721;47.402;8.550;2024-02-14T03:25:25;96638;;;8.33;49.62
2711;BME280;20721;47.402;8.550;2024-02-14T03:27:26;96635;;;8.26;50.07
2711;BME280;20721;47.402;8.550;2024-02-14T03:29:24;96632;;;8.18;50.07
2711;BME280;20721;47.402;8.550;2024-02-14T03:31:26;96630;;;8.03;50.47
2711;BME280;20721;47.402;8.550;2024-02-14T03:33:24;96636;;;8.09;50.41
2711;BME280;20721;47.402;8.550;2024-02-14T03:36:28;96631;;;8.10;50.50
2711;BME280;20721;47.402;8.550;2024-02-14T03:38:25;96635;;;8.15;50.53
2711;BME280;20721;47.402;8.550;2024-02-14T03:41:24;96638;;;8.33;49.83
2711;BME280;20721;47.402;8.550;2024-02-14T03:43:24;96637;;;8.32;50.00
2711;BME280;20721;47.402;8.550;2024-02-14T03:45:24;96644;;;8.43;49.69
2711;BME280;20721;47.402;8.550;2024-02-14T03:47:24;96641;;;8.71;49.37
2711;BME280;20721;47.402;8.550;2024-02-14T03:49:25;96644;;;8.91;48.66
2711;BME280;20721;47.402;8.550;2024-02-14T03:51:24;96645;;;9.02;48.09
2711;BME280;20721;47.402;8.550;2024-02-14T03:53:24;96649;;;9.08;48.09
2711;BME280;20721;47.402;8.550;2024-02-14T03:55:24;96652;;;9.25;48.16
2711;BME280;20721;47.402;8.550;2024-02-14T03:57:25;96648;;;9.41;47.79
2711;BME280;20721;47.402;8.550;2024-02-14T04:00:24;96651;;;9.44;48.31
2711;BME280;20721;47.402;8.550;2024-02-14T04:02:26;96651;;;9.38;48.46
2711;BME280;20721;47.402;8.550;2024-02-14T04:04:24;96653;;;9.32;48.50
2711;BME280;20721;47.402;8.550;2024-02-14T04:06:27;96652;;;9.17;48.54
2711;BME280;20721;47.402;8.550;2024-02-14T04:08:24;96650;;;8.92;48.96
2711;BME280;20721;47.402;8.550;2024-02-14T04:10:24;96655;;;8.72;48.93
2711;BME280;20721;47.402;8.550;2024-02-14T04:12:24;96648;;;8.45;49.21
2711;BME280;20721;47.402;8.550;2024-02-14T04:14:25;96648;;;8.55;49.41
2711;BME280;20721;47.402;8.550;2024-02-14T04:16:24;96652;;;8.50;49.50
2711;BME280;20721;47.402;8.550;2024-02-14T04:18:25;96653;;;8.39;49.65
2711;BME280;20721;47.402;8.550;2024-02-14T04:20:24;96649;;;8.28;49.53
2711;BME280;20721;47.402;8.550;2024-02-14T04:22:24;96652;;;8.27;49.42
2711;BME280;20721;47.402;8.550;2024-02-14T04:24:24;96650;;;8.17;49.28
2711;BME280;20721;47.402;8.550;2024-02-14T04:26:25;96650;;;8.16;49.50
2711;BME280;20721;47.402;8.550;2024-02-14T04:28:24;96654;;;8.12;49.40
2711;BME280;20721;47.402;8.550;2024-02-14T04:30:25;96656;;;8.04;49.42
2711;BME280;20721;47.402;8.550;2024-02-14T04:32:25;96665;;;7.91;49.67
2711;BME280;20721;47.402;8.550;2024-02-14T04:34:25;96660;;;8.08;49.49
2711;BME280;20721;47.402;8.550;2024-02-14T04:36:24;96665;;;8.32;48.66
2711;BME280;20721;47.402;8.550;2024-02-14T04:38:24;96669;;;8.55;48.18
2711;BME280;20721;47.402;8.550;2024-02-14T04:40:24;96664;;;8.77;47.89
2711;BME280;20721;47.402;8.550;2024-02-14T04:42:24;96671;;;8.93;48.20
2711;BME280;20721;47.402;8.550;2024-02-14T04:44:24;96675;;;8.99;48.82
2711;BME280;20721;47.402;8.550;2024-02-14T04:46:24;96674;;;8.97;48.61
2711;BME280;20721;47.402;8.550;2024-02-14T04:48:25;96678;;;8.91;48.85
2711;BME280;20721;47.402;8.550;2024-02-14T04:50:24;96664;;;8.87;49.05
2711;BME280;20721;47.402;8.550;2024-02-14T04:52:25;96669;;;8.79;49.16
2711;BME280;20721;47.402;8.550;2024-02-14T04:54:25;96665;;;8.75;49.61
2711;BME280;20721;47.402;8.550;2024-02-14T04:56:26;96669;;;8.71;49.83
2711;BME280;20721;47.402;8.550;2024-02-14T04:58:26;96666;;;8.71;50.08
2711;BME280;20721;47.402;8.550;2024-02-14T05:01:25;96672;;;8.75;50.00
2711;BME280;20721;47.402;8.550;2024-02-14T05:03:25;96668;;;8.79;49.92
2711;BME280;20721;47.402;8.550;2024-02-14T05:05:25;96673;;;8.83;49.85
2711;BME280;20721;47.402;8.550;2024-02-14T05:07:25;96674;;;8.86;49.64
2711;BME280;20721;47.402;8.550;2024-02-14T05:09:24;96679;;;8.87;49.64
2711;BME280;20721;47.402;8.550;2024-02-14T05:11:24;96677;;;8.83;49.14
2711;BME280;20721;47.402;8.550;2024-02-14T05:13:24;96677;;;8.83;49.05
2711;BME280;20721;47.402;8.550;2024-02-14T05:15:25;96683;;;8.86;49.46
2711;BME280;20721;47.402;8.550;2024-02-14T05:17:25;96687;;;8.79;49.25
2711;BME280;20721;47.402;8.550;2024-02-14T05:19:25;96688;;;8.80;49.51
2711;BME280;20721;47.402;8.550;2024-02-14T05:21:24;96689;;;8.73;49.55
2711;BME280;20721;47.402;8.550;2024-02-14T05:23:24;96694;;;8.78;49.83
2711;BME280;20721;47.402;8.550;2024-02-14T05:25:25;96689;;;8.72;48.36
2711;BME280;20721;47.402;8.550;2024-02-14T05:27:25;96686;;;8.78;49.14
2711;BME280;20721;47.402;8.550;2024-02-14T05:29:25;96685;;;8.77;49.20
2711;BME280;20721;47.402;8.550;2024-02-14T05:31:25;96683;;;8.80;49.61
2711;BME280;20721;47.402;8.550;2024-02-14T05:33:25;96684;;;8.70;49.64
2711;BME280;20721;47.402;8.550;2024-02-14T05:35:25;96686;;;8.55;49.25
2711;BME280;20721;47.402;8.550;2024-02-14T05:37:27;96689;;;8.48;49.83
2711;BME280;20721;47.402;8.550;2024-02-14T05:39:25;96687;;;8.42;49.89
2711;BME280;20721;47.402;8.550;2024-02-14T05:41:25;96690;;;8.57;50.96
2711;BME280;20721;47.402;8.550;2024-02-14T05:43:25;96692;;;8.78;50.59
2711;BME280;20721;47.402;8.550;2024-02-14T05:45:25;96690;;;8.61;51.51
2711;BME280;20721;47.402;8.550;2024-02-14T05:47:25;96684;;;8.61;51.36
2711;BME280;20721;47.402;8.550;2024-02-14T05:49:25;96686;;;8.61;51.82
2711;BME280;20721;47.402;8.550;2024-02-14T05:51:25;96685;;;8.67;51.89
2711;BME280;20721;47.402;8.550;2024-02-14T05:53:25;96688;;;8.73;52.03
2711;BME280;20721;47.402;8.550;2024-02-14T05:55:25;96690;;;8.74;52.06
2711;BME280;20721;47.402;8.550;2024-02-14T05:57:25;96693;;;8.72;51.92
2711;BME280;20721;47.402;8.550;2024-02-14T05:59:25;96704;;;8.68;51.97
2711;BME280;20721;47.402;8.550;2024-02-14T06:01:25;96705;;;8.62;51.75
2711;BME280;20721;47.402;8.550;2024-02-14T06:03:25;96713;;;8.64;52.67
2711;BME280;20721;47.402;8.550;2024-02-14T06:05:25;96713;;;8.59;52.56
2711;BME280;20721;47.402;8.550;2024-02-14T06:07:25;96715;;;8.59;53.53
2711;BME280;20721;47.402;8.550;2024-02-14T06:10:25;96716;;;8.53;54.19
2711;BME280;20721;47.402;8.550;2024-02-14T06:12:25;96711;;;8.42;54.37
2711;BME280;20721;47.402;8.550;2024-02-14T06:14:25;96713;;;8.33;54.34
2711;BME280;20721;47.402;8.550;2024-02-14T06:16:25;96703;;;8.28;54.60
2711;BME280;20721;47.402;8.550;2024-02-14T06:18:25;96706;;;8.24;54.73
2711;BME280;20721;47.402;8.550;2024-02-14T06:20:25;96711;;;8.28;54.88
2711;BME280;20721;47.402;8.550;2024-02-14T06:22:25;96710;;;8.38;53.96
2711;BME280;20721;47.402;8.550;2024-02-14T06:24:25;96712;;;8.41;53.55
2711;BME280;20721;47.402;8.550;2024-02-14T06:26:25;96710;;;8.46;53.01
2711;BME280;20721;47.402;8.550;2024-02-14T06:28:25;96720;;;8.20;53.24
2711;BME280;20721;47.402;8.550;2024-02-14T06:30:28;96723;;;8.14;53.48
2711;BME280;20721;47.402;8.550;2024-02-14T06:32:25;96730;;;8.24;54.47
2711;BME280;20721;47.402;8.550;2024-02-14T06:34:26;96726;;;8.36;54.45
2711;BME280;20721;47.402;8.550;2024-02-14T06:36:25;96726;;;8.50;53.52
2711;BME280;20721;47.402;8.550;2024-02-14T06:38:25;96724;;;8.58;53.67
2711;BME280;20721;47.402;8.550;2024-02-14T06:40:25;96727;;;8.67;53.88
2711;BME280;20721;47.402;8.550;2024-02-14T06:42:26;96733;;;8.70;53.01
2711;BME280;20721;47.402;8.550;2024-02-14T06:44:25;96735;;;8.71;53.41
2711;BME280;20721;47.402;8.550;2024-02-14T06:46:25;96740;;;8.75;53.07
2711;BME280;20721;47.402;8.550;2024-02-14T06:48:25;96738;;;8.75;52.98
2711;BME280;20721;47.402;8.550;2024-02-14T06:51:25;96733;;;8.74;53.09
2711;BME280;20721;47.402;8.550;2024-02-14T06:53:25;96727;;;8.65;52.90
2711;BME280;20721;47.402;8.550;2024-02-14T06:55:25;96726;;;8.67;53.58
2711;BME280;20721;47.402;8.550;2024-02-14T06:57:25;96735;;;8.71;53.58
2711;BME280;20721;47.402;8.550;2024-02-14T06:59:26;96733;;;8.73;53.30
2711;BME280;20721;47.402;8.550;2024-02-14T07:01:27;96733;;;8.69;52.96
2711;BME280;20721;47.402;8.550;2024-02-14T07:04:25;96733;;;8.71;53.03
2711;BME280;20721;47.402;8.550;2024-02-14T07:06:25;96735;;;8.76;52.71
2711;BME280;20721;47.402;8.550;2024-02-14T07:08:27;96737;;;8.84;52.71
2711;BME280;20721;47.402;8.550;2024-02-14T07:10:25;96739;;;8.95;52.26
2711;BME280;20721;47.402;8.550;2024-02-14T07:12:25;96742;;;9.09;52.21
2711;BME280;20721;47.402;8.550;2024-02-14T07:14:25;96739;;;9.22;52.50
2711;BME280;20721;47.402;8.550;2024-02-14T07:16:25;96741;;;9.31;51.81
2711;BME280;20721;47.402;8.550;2024-02-14T07:18:26;96738;;;9.41;51.63
2711;BME280;20721;47.402;8.550;2024-02-14T07:20:26;96738;;;9.47;51.36
2711;BME280;20721;47.402;8.550;2024-02-14T07:22:25;96740;;;9.57;51.71
2711;BME280;20721;47.402;8.550;2024-02-14T07:24:25;96737;;;9.66;51.91
2711;BME280;20721;47.402;8.550;2024-02-14T07:26:25;96735;;;9.77;51.80
2711;BME280;20721;47.402;8.550;2024-02-14T07:28:25;96735;;;9.89;52.40
2711;BME280;20721;47.402;8.550;2024-02-14T07:30:25;96743;;;10.03;52.60
2711;BME280;20721;47.402;8.550;2024-02-14T07:32:25;96744;;;10.10;51.42
2711;BME280;20721;47.402;8.550;2024-02-14T07:34:25;96737;;;10.18;51.33
2711;BME280;20721;47.402;8.550;2024-02-14T07:36:25;96739;;;10.22;50.91
2711;BME280;20721;47.402;8.550;2024-02-14T07:38:25;96742;;;10.26;50.97
2711;BME280;20721;47.402;8.550;2024-02-14T07:40:27;96743;;;10.30;51.15
2711;BME280;20721;47.402;8.550;2024-02-14T07:42:25;96744;;;10.36;51.05
2711;BME280;20721;47.402;8.550;2024-02-14T07:44:25;96743;;;10.39;50.31
2711;BME280;20721;47.402;8.550;2024-02-14T07:47:25;96739;;;10.35;50.38
2711;BME280;20721;47.402;8.550;2024-02-14T07:49:25;96736;;;10.37;50.25
2711;BME280;20721;47.402;8.550;2024-02-14T07:51:25;96736;;;10.46;49.77
2711;BME280;20721;47.402;8.550;2024-02-14T07:53:25;96734;;;10.48;49.52
2711;BME280;20721;47.402;8.550;2024-02-14T07:55:25;96730;;;10.63;49.81
2711;BME280;20721;47.402;8.550;2024-02-14T07:57:25;96727;;;10.81;48.97
2711;BME280;20721;47.402;8.550;2024-02-14T07:59:25;96726;;;10.80;48.30
2711;BME280;20721;47.402;8.550;2024-02-14T08:01:25;96726;;;11.06;48.24
2711;BME280;20721;47.402;8.550;2024-02-14T08:03:25;96719;;;11.82;46.40
2711;BME280;20721;47.402;8.550;2024-02-14T08:05:25;96716;;;12.32;45.27
2711;BME280;20721;47.402;8.550;2024-02-14T08:07:25;96714;;;12.88;44.78
2711;BME280;20721;47.402;8.550;2024-02-14T08:09:25;96715;;;13.67;43.67
2711;BME280;20721;47.402;8.550;2024-02-14T08:11:26;96722;;;14.38;41.99
2711;BME280;20721;47.402;8.550;2024-02-14T08:13:25;96724;;;14.79;40.67
2711;BME280;20721;47.402;8.550;2024-02-14T08:15:25;96724;;;14.59;40.29
2711;BME280;20721;47.402;8.550;2024-02-14T08:17:25;96719;;;14.65;40.55
2711;BME280;20721;47.402;8.550;2024-02-14T08:19:25;96713;;;14.88;39.75
2711;BME280;20721;47.402;8.550;2024-02-14T08:21:29;96712;;;14.75;40.31
2711;BME280;20721;47.402;8.550;2024-02-14T08:23:25;96712;;;15.03;39.50
2711;BME280;20721;47.402;8.550;2024-02-14T08:25:26;96708;;;15.31;38.97
2711;BME280;20721;47.402;8.550;2024-02-14T08:27:26;96713;;;15.56;38.32
2711;BME280;20721;47.402;8.550;2024-02-14T08:30:25;96717;;;15.58;37.82
2711;BME280;20721;47.402;8.550;2024-02-14T08:33:25;96719;;;15.73;37.91
2711;BME280;20721;47.402;8.550;2024-02-14T08:35:25;96725;;;15.65;37.79
2711;BME280;20721;47.402;8.550;2024-02-14T08:37:25;96721;;;15.30;38.09
2711;BME280;20721;47.402;8.550;2024-02-14T08:39:26;96722;;;15.23;37.92
2711;BME280;20721;47.402;8.550;2024-02-14T08:41:25;96727;;;15.67;37.78
2711;BME280;20721;47.402;8.550;2024-02-14T08:43:25;96726;;;15.99;37.45
2711;BME280;20721;47.402;8.550;2024-02-14T08:45:26;96730;;;16.37;36.97
2711;BME280;20721;47.402;8.550;2024-02-14T08:47:26;96729;;;16.71;36.69
2711;BME280;20721;47.402;8.550;2024-02-14T08:49:25;96731;;;16.89;36.05
2711;BME280;20721;47.402;8.550;2024-02-14T08:51:25;96732;;;17.04;35.53
2711;BME280;20721;47.402;8.550;2024-02-14T08:53:28;96736;;;17.45;35.40
2711;BME280;20721;47.402;8.550;2024-02-14T08:55:25;96741;;;18.01;34.49
2711;BME280;20721;47.402;8.550;2024-02-14T08:57:26;96741;;;18.53;33.26
2711;BME280;20721;47.402;8.550;2024-02-14T08:59:26;96739;;;18.98;32.10
2711;BME280;20721;47.402;8.550;2024-02-14T09:01:26;96732;;;19.35;31.12
2711;BME280;20721;47.402;8.550;2024-02-14T09:03:25;96731;;;19.28;30.88
2711;BME280;20721;47.402;8.550;2024-02-14T09:05:25;96737;;;18.12;31.59
2711;BME280;20721;47.402;8.550;2024-02-14T09:07:25;96739;;;17.34;33.02
2711;BME280;20721;47.402;8.550;2024-02-14T09:09:25;96742;;;16.88;33.79
2711;BME280;20721;47.402;8.550;2024-02-14T09:11:25;96744;;;16.44;34.40
2711;BME280;20721;47.402;8.550;2024-02-14T09:13:27;96744;;;15.96;35.17
2711;BME280;20721;47.402;8.550;2024-02-14T09:15:26;96744;;;15.50;35.80
2711;BME280;20721;47.402;8.550;2024-02-14T09:17:27;96747;;;15.00;36.55
2711;BME280;20721;47.402;8.550;2024-02-14T09:19:27;96752;;;14.54;37.61
2711;BME280;20721;47.402;8.550;2024-02-14T09:21:27;96747;;;14.03;37.91
2711;BME280;20721;47.402;8.550;2024-02-14T09:23:25;96751;;;14.08;38.48
2711;BME280;20721;47.402;8.550;2024-02-14T09:25:25;96758;;;14.13;38.30
2711;BME280;20721;47.402;8.550;2024-02-14T09:27:25;96757;;;14.14;38.53
2711;BME280;20721;47.402;8.550;2024-02-14T09:29:25;96758;;;14.06;38.11
2711;BME280;20721;47.402;8.550;2024-02-14T09:31:25;96759;;;14.01;37.94
2711;BME280;20721;47.402;8.550;2024-02-14T09:33:25;96755;;;14.17;37.44
2711;BME280;20721;47.402;8.550;2024-02-14T09:35:25;96754;;;15.10;35.82
2711;BME280;20721;47.402;8.550;2024-02-14T09:37:25;96758;;;16.68;33.38
2711;BME280;20721;47.402;8.550;2024-02-14T09:39:25;96753;;;17.11;32.85
2711;BME280;20721;47.402;8.550;2024-02-14T09:41:29;96754;;;16.85;33.24
2711;BME280;20721;47.402;8.550;2024-02-14T09:43:34;96747;;;16.94;32.92
2711;BME280;20721;47.402;8.550;2024-02-14T09:45:26;96746;;;17.38;32.47
2711;BME280;20721;47.402;8.550;2024-02-14T09:47:25;96743;;;18.20;31.30
2711;BME280;20721;47.402;8.550;2024-02-14T09:49:25;96746;;;18.32;31.11
2711;BME280;20721;47.402;8.550;2024-02-14T09:51:25;96747;;;18.61;30.90
2711;BME280;20721;47.402;8.550;2024-02-14T09:53:25;96746;;;19.23;30.50
2711;BME280;20721;47.402;8.550;2024-02-14T09:55:26;96739;;;20.13;29.63
2711;BME280;20721;47.402;8.550;2024-02-14T09:57:26;96738;;;20.86;27.48
2711;BME280;20721;47.402;8.550;2024-02-14T09:59:25;96736;;;21.38;26.99
2711;BME280;20721;47.402;8.550;2024-02-14T10:01:26;96731;;;21.78;25.55
2711;BME280;20721;47.402;8.550;2024-02-14T10:03:26;96732;;;21.71;24.63
2711;BME280;20721;47.402;8.550;2024-02-14T10:05:25;96736;;;21.66;26.12
2711;BME280;20721;47.402;8.550;2024-02-14T10:07:25;96736;;;21.64;25.80
2711;BME280;20721;47.402;8.550;2024-02-14T10:09:25;96735;;;21.34;26.50
2711;BME280;20721;47.402;8.550;2024-02-14T10:11:27;96736;;;20.77;27.69
2711;BME280;20721;47.402;8.550;2024-02-14T10:13:27;96739;;;20.31;28.19
2711;BME280;20721;47.402;8.550;2024-02-14T10:15:26;96747;;;19.93;28.82
2711;BME280;20721;47.402;8.550;2024-02-14T10:17:26;96750;;;19.56;29.15
2711;BME280;20721;47.402;8.550;2024-02-14T10:19:26;96752;;;19.33;29.57
2711;BME280;20721;47.402;8.550;2024-02-14T10:21:26;96759;;;19.16;29.84
2711;BME280;20721;47.402;8.550;2024-02-14T10:23:27;96750;;;19.06;29.94
2711;BME280;20721;47.402;8.550;2024-02-14T10:25:25;96752;;;18.95;30.02
2711;BME280;20721;47.402;8.550;2024-02-14T10:27:25;96760;;;18.90;29.85
2711;BME280;20721;47.402;8.550;2024-02-14T10:29:25;96766;;;18.79;30.34
2711;BME280;20721;47.402;8.550;2024-02-14T10:31:26;96761;;;18.63;30.37
2711;BME280;20721;47.402;8.550;2024-02-14T10:33:30;96766;;;18.46;29.53
2711;BME280;20721;47.402;8.550;2024-02-14T10:35:25;96764;;;18.26;28.85
2711;BME280;20721;47.402;8.550;2024-02-14T10:37:25;96768;;;18.03;29.15
2711;BME280;20721;47.402;8.550;2024-02-14T10:39:25;96768;;;17.95;29.03
2711;BME280;20721;47.402;8.550;2024-02-14T10:42:25;96770;;;17.86;29.20
2711;BME280;20721;47.402;8.550;2024-02-14T10:44:25;96771;;;17.80;29.36
2711;BME280;20721;47.402;8.550;2024-02-14T10:46:25;96772;;;17.79;29.40
2711;BME280;20721;47.402;8.550;2024-02-14T10:48:31;96770;;;17.55;29.11
2711;BME280;20721;47.402;8.550;2024-02-14T10:50:25;96773;;;17.24;29.39
2711;BME280;20721;47.402;8.550;2024-02-14T10:52:25;96773;;;17.18;30.05
2711;BME280;20721;47.402;8.550;2024-02-14T10:54:25;96766;;;17.10;29.64
2711;BME280;20721;47.402;8.550;2024-02-14T10:56:26;96772;;;16.97;30.06
2711;BME280;20721;47.402;8.550;2024-02-14T10:58:25;96773;;;16.92;30.39
2711;BME280;20721;47.402;8.550;2024-02-14T11:00:26;96773;;;16.31;30.40
2711;BME280;20721;47.402;8.550;2024-02-14T11:03:26;96767;;;16.09;31.48
2711;BME280;20721;47.402;8.550;2024-02-14T11:05:25;96768;;;16.34;31.87
2711;BME280;20721;47.402;8.550;2024-02-14T11:07:28;96767;;;16.49;31.43
2711;BME280;20721;47.402;8.550;2024-02-14T11:09:31;96765;;;16.48;31.57
2711;BME280;20721;47.402;8.550;2024-02-14T11:11:27;96765;;;16.33;31.52
2711;BME280;20721;47.402;8.550;2024-02-14T11:13:28;96760;;;16.06;31.14
2711;BME280;20721;47.402;8.550;2024-02-14T11:15:29;96763;;;15.89;31.57
2711;BME280;20721;47.402;8.550;2024-02-14T11:17:27;96757;;;15.90;32.02
2711;BME280;20721;47.402;8.550;2024-02-14T11:19:31;96753;;;15.97;31.59
2711;BME280;20721;47.402;8.550;2024-02-14T11:21:27;96751;;;15.66;31.64
2711;BME280;20721;47.402;8.550;2024-02-14T11:22:26;96753;;;15.57;32.10
2711;BME280;20721;47.402;8.550;2024-02-14T11:24:26;96749;;;15.57;32.75
2711;BME280;20721;47.402;8.550;2024-02-14T11:26:37;96751;;;15.88;32.93
2711;BME280;20721;47.402;8.550;2024-02-14T11:28:25;96755;;;16.26;32.23
2711;BME280;20721;47.402;8.550;2024-02-14T11:30:29;96753;;;16.26;31.35
2711;BME280;20721;47.402;8.550;2024-02-14T11:32:27;96746;;;16.01;31.98
2711;BME280;20721;47.402;8.550;2024-02-14T11:34:26;96742;;;15.88;31.84
2711;BME280;20721;47.402;8.550;2024-02-14T11:36:25;96740;;;15.68;32.56
2711;BME280;20721;47.402;8.550;2024-02-14T11:38:25;96736;;;15.46;32.87